Time;durP1;ratioP1;P1;durP2;ratioP2;P2;SDS_P1;SDS_P2;PMS_P1;PMS_P2;Temp;Humidity;BMP_temperature;BMP_pressure;BME280_temperature;BME280_humidity;BME280_pressure;Samples;Min_cycle;Max_cycle;Signal;HPM_P1;HPM_P2
2023/06/05 02:06:55;;;;;;;2.90;1.40;;;;;;;;;;5084130;27;20129;-69
2023/06/05 02:09:21;;;;;;;5.47;2.33;;;;;;;;;;5074986;28;20054;-68
2023/06/05 02:11:48;;;;;;;3.33;1.50;;;;;;;;;;5074757;28;22018;-68
2023/06/05 02:14:15;;;;;;;7.50;2.28;;;;;;;;;;5085859;28;20142;-68
2023/06/05 02:16:43;;;;;;;5.53;2.08;;;;;;;;;;5018895;28;20139;-68
2023/06/05 02:19:10;;;;;;;6.43;2.33;;;;;;;;;;5071946;28;20048;-69
2023/06/05 02:21:37;;;;;;;6.38;2.40;;;;;;;;;;5076365;27;20055;-69
2023/06/05 02:24:06;;;;;;;4.90;2.60;;;;;;;;;;5074188;28;20091;-68
2023/06/05 02:26:33;;;;;;;6.15;2.72;;;;;;;;;;5081619;27;20062;-69
2023/06/05 02:28:59;;;;;;;5.57;2.13;;;;;;;;;;5095591;28;20077;-68
2023/06/05 02:31:28;;;;;;;9.43;2.60;;;;;;;;;;5097256;28;20059;-69
2023/06/05 02:33:55;;;;;;;6.13;2.50;;;;;;;;;;5081806;28;20067;-68
2023/06/05 02:36:22;;;;;;;6.85;1.83;;;;;;;;;;5070253;28;20075;-69
2023/06/05 02:38:49;;;;;;;5.30;2.38;;;;;;;;;;5072796;28;20060;-68
2023/06/05 02:41:17;;;;;;;6.50;2.38;;;;;;;;;;5078298;28;20056;-69
2023/06/05 02:43:44;;;;;;;9.00;2.28;;;;;;;;;;5074583;28;20060;-68
2023/06/05 02:46:11;;;;;;;4.63;2.25;;;;;;;;;;5087918;28;20056;-68
2023/06/05 02:48:37;;;;;;;4.15;1.65;;;;;;;;;;5085735;28;20147;-67
2023/06/05 02:51:06;;;;;;;6.68;2.58;;;;;;;;;;5098554;28;20059;-67
2023/06/05 02:53:32;;;;;;;5.20;2.22;;;;;;;;;;5093221;28;20052;-67
2023/06/05 02:56:01;;;;;;;4.78;1.88;;;;;;;;;;5076975;27;20116;-67
2023/06/05 02:58:29;;;;;;;6.28;2.45;;;;;;;;;;5072555;27;20117;-67
2023/06/05 03:01:01;;;;;;;5.18;2.05;;;;;;;;;;5096633;28;20081;-67
2023/06/05 03:03:29;;;;;;;4.13;1.85;;;;;;;;;;5097015;28;20091;-67
2023/06/05 03:06:01;;;;;;;4.60;2.13;;;;;;;;;;5075125;28;20077;-67
2023/06/05 03:08:28;;;;;;;6.63;2.67;;;;;;;;;;4999502;28;20092;-67
2023/06/05 03:10:55;;;;;;;5.38;1.92;;;;;;;;;;4996801;28;20152;-67
2023/06/05 03:13:23;;;;;;;6.93;3.15;;;;;;;;;;4977416;28;20112;-67
2023/06/05 03:15:53;;;;;;;6.43;2.78;;;;;;;;;;4979395;28;20114;-67
2023/06/05 03:18:21;;;;;;;4.43;2.03;;;;;;;;;;4978832;28;20111;-68
2023/06/05 03:20:49;;;;;;;7.53;2.67;;;;;;;;;;4961922;28;20054;-67
2023/06/05 03:23:16;;;;;;;7.05;2.65;;;;;;;;;;4961514;28;20145;-67
2023/06/05 03:25:42;;;;;;;6.72;3.08;;;;;;;;;;4958329;28;20096;-66
2023/06/05 03:28:09;;;;;;;6.03;2.42;;;;;;;;;;4984029;28;20076;-67
2023/06/05 03:30:37;;;;;;;6.38;3.15;;;;;;;;;;4972784;28;20137;-67
2023/06/05 03:33:07;;;;;;;5.75;2.55;;;;;;;;;;4978888;28;20096;-67
2023/06/05 03:35:34;;;;;;;7.35;3.53;;;;;;;;;;4964733;28;20066;-67
2023/06/05 03:38:01;;;;;;;7.30;3.00;;;;;;;;;;4984464;28;20069;-67
2023/06/05 03:40:30;;;;;;;7.75;3.58;;;;;;;;;;4969616;28;20123;-67
2023/06/05 03:42:56;;;;;;;3.78;1.80;;;;;;;;;;4981896;28;20077;-67
2023/06/05 03:45:27;;;;;;;6.95;3.13;;;;;;;;;;4976609;28;20137;-67
2023/06/05 03:47:53;;;;;;;7.82;2.75;;;;;;;;;;4982927;28;20139;-67
2023/06/05 03:50:23;;;;;;;4.32;1.90;;;;;;;;;;4976350;28;20075;-67
2023/06/05 03:52:52;;;;;;;9.05;3.50;;;;;;;;;;4958055;28;20058;-66
2023/06/05 03:55:19;;;;;;;6.55;2.13;;;;;;;;;;4955662;28;20070;-67
2023/06/05 03:57:46;;;;;;;8.60;2.70;;;;;;;;;;4974298;28;20065;-66
2023/06/05 04:00:17;;;;;;;6.68;2.65;;;;;;;;;;4978898;28;20051;-66
2023/06/05 04:02:43;;;;;;;6.10;2.90;;;;;;;;;;4972020;28;20071;-66
2023/06/05 04:05:12;;;;;;;5.40;2.20;;;;;;;;;;5000474;28;20047;-66
2023/06/05 04:07:42;;;;;;;7.05;2.70;;;;;;;;;;5080577;28;20055;-66
2023/06/05 04:10:10;;;;;;;7.20;2.55;;;;;;;;;;5065590;28;20052;-67
2023/06/05 04:12:39;;;;;;;5.82;2.20;;;;;;;;;;5052573;28;20114;-66
2023/06/05 04:15:08;;;;;;;8.00;3.42;;;;;;;;;;5040704;28;20139;-67
2023/06/05 04:17:37;;;;;;;5.65;2.78;;;;;;;;;;5069750;28;20148;-67
2023/06/05 04:20:13;;;;;;;6.90;3.00;;;;;;;;;;5079448;28;20056;-67
2023/06/05 04:22:41;;;;;;;8.52;3.42;;;;;;;;;;5075642;28;20101;-66
2023/06/05 04:25:10;;;;;;;9.32;3.78;;;;;;;;;;5047245;28;20080;-66
2023/06/05 04:27:36;;;;;;;;;;;;;;;;;;5094204;28;20048;-66
2023/06/05 04:30:03;;;;;;;8.98;2.88;;;;;;;;;;5080192;28;19924;-67
2023/06/05 04:32:34;;;;;;;7.05;2.13;;;;;;;;;;5069168;28;20052;-67
2023/06/05 04:35:01;;;;;;;8.93;4.20;;;;;;;;;;5034990;28;20095;-67
2023/06/05 04:37:27;;;;;;;12.35;4.32;;;;;;;;;;5040379;28;20056;-68
2023/06/05 04:39:56;;;;;;;7.97;2.60;;;;;;;;;;5079865;28;20059;-68
2023/06/05 04:42:25;;;;;;;5.53;2.58;;;;;;;;;;5071237;28;20060;-69
2023/06/05 04:44:54;;;;;;;5.00;2.08;;;;;;;;;;5064088;28;20052;-66
2023/06/05 04:47:21;;;;;;;9.65;2.67;;;;;;;;;;5031218;28;20052;-66
2023/06/05 04:49:49;;;;;;;7.60;2.58;;;;;;;;;;5061280;28;20140;-67
2023/06/05 04:52:15;;;;;;;10.50;3.70;;;;;;;;;;5062690;28;20151;-68
2023/06/05 04:54:42;;;;;;;6.28;2.78;;;;;;;;;;5057814;28;20079;-66
2023/06/05 04:57:12;;;;;;;9.13;3.65;;;;;;;;;;5038896;28;20084;-67
2023/06/05 04:59:41;;;;;;;7.65;3.33;;;;;;;;;;5060378;28;20060;-67
2023/06/05 05:02:08;;;;;;;6.00;2.67;;;;;;;;;;5063823;28;20052;-67
2023/06/05 05:04:35;;;;;;;7.65;3.15;;;;;;;;;;5047033;28;20065;-67
2023/06/05 05:07:02;;;;;;;6.28;2.67;;;;;;;;;;4949117;28;20069;-66
2023/06/05 05:09:28;;;;;;;7.15;2.53;;;;;;;;;;4960511;28;20069;-69
2023/06/05 05:11:55;;;;;;;10.98;5.53;;;;;;;;;;4964880;28;20078;-69
2023/06/05 05:14:23;;;;;;;6.72;2.33;;;;;;;;;;4956380;28;20057;-67
2023/06/05 05:16:52;;;;;;;8.35;2.33;;;;;;;;;;4970856;28;20058;-66
2023/06/05 05:19:21;;;;;;;7.72;2.53;;;;;;;;;;4977275;28;20064;-69
2023/06/05 05:21:48;;;;;;;9.63;3.70;;;;;;;;;;4980133;28;20204;-69
2023/06/05 05:24:23;;;;;;;6.45;2.80;;;;;;;;;;4975178;28;20058;-70
2023/06/05 05:26:50;;;;;;;8.77;3.03;;;;;;;;;;4974527;28;20221;-68
2023/06/05 05:29:17;;;;;;;7.75;2.47;;;;;;;;;;4981926;28;20050;-69
2023/06/05 05:31:46;;;;;;;6.88;3.00;;;;;;;;;;4982365;28;20137;-69
2023/06/05 05:34:13;;;;;;;9.00;3.35;;;;;;;;;;4983024;28;20058;-68
2023/06/05 05:36:41;;;;;;;9.15;3.22;;;;;;;;;;4934260;28;20254;-66
2023/06/05 05:39:07;;;;;;;4.65;2.38;;;;;;;;;;4974735;28;20058;-68
2023/06/05 05:41:36;;;;;;;6.40;2.70;;;;;;;;;;4969722;28;20069;-68
2023/06/05 05:44:02;;;;;;;5.90;2.35;;;;;;;;;;4972585;28;20092;-68
2023/06/05 05:46:29;;;;;;;4.25;1.85;;;;;;;;;;4957119;28;20058;-68
2023/06/05 05:49:05;;;;;;;6.40;2.15;;;;;;;;;;4980194;28;20137;-67
2023/06/05 05:51:33;;;;;;;5.70;2.05;;;;;;;;;;4971101;28;20111;-66
2023/06/05 05:54:00;;;;;;;3.70;1.77;;;;;;;;;;4973735;28;20058;-66
2023/06/05 05:56:29;;;;;;;11.80;2.85;;;;;;;;;;4930409;28;20051;-66
2023/06/05 05:58:55;;;;;;;5.18;2.10;;;;;;;;;;4974365;28;20083;-68
2023/06/05 06:01:24;;;;;;;6.47;2.65;;;;;;;;;;4972718;28;20050;-68
2023/06/05 06:03:51;;;;;;;4.57;2.08;;;;;;;;;;4974854;28;20062;-68
2023/06/05 06:06:29;;;;;;;9.02;2.58;;;;;;;;;;5011985;28;20148;-70
2023/06/05 06:09:01;;;;;;;;;;;;;;;;;;5071303;27;20070;-68
2023/06/05 06:11:31;;;;;;;8.50;2.33;;;;;;;;;;5057096;28;19982;-68
2023/06/05 06:14:01;;;;;;;9.07;2.92;;;;;;;;;;4986560;28;20133;-68
2023/06/05 06:16:30;;;;;;;6.03;2.42;;;;;;;;;;5031427;28;20079;-69
2023/06/05 06:18:58;;;;;;;5.22;2.22;;;;;;;;;;5054361;28;20165;-68
2023/06/05 06:21:26;;;;;;;4.97;2.20;;;;;;;;;;5031206;28;20088;-68
2023/06/05 06:23:59;;;;;;;5.35;1.95;;;;;;;;;;5036598;28;20064;-68
2023/06/05 06:26:26;;;;;;;5.43;1.98;;;;;;;;;;5021245;28;20048;-69
2023/06/05 06:28:54;;;;;;;10.18;2.80;;;;;;;;;;5030104;28;20063;-69
2023/06/05 06:31:21;;;;;;;8.23;2.73;;;;;;;;;;5064730;28;20132;-68
2023/06/05 06:33:47;;;;;;;6.13;2.97;;;;;;;;;;5018632;28;20111;-68
2023/06/05 06:36:17;;;;;;;5.60;2.28;;;;;;;;;;4978216;28;20069;-68
2023/06/05 06:38:45;;;;;;;6.28;2.22;;;;;;;;;;5009294;28;20071;-68
2023/06/05 06:41:12;;;;;;;5.93;2.47;;;;;;;;;;4999630;28;20149;-68
2023/06/05 06:43:38;;;;;;;6.40;2.33;;;;;;;;;;5053966;28;20058;-68
2023/06/05 06:46:06;;;;;;;5.47;1.75;;;;;;;;;;5064116;28;20139;-68
2023/06/05 06:48:33;;;;;;;6.50;2.87;;;;;;;;;;5050365;28;20058;-68
2023/06/05 06:51:00;;;;;;;6.10;2.50;;;;;;;;;;4995126;28;20065;-68
2023/06/05 06:53:29;;;;;;;10.68;2.20;;;;;;;;;;4994374;28;20114;-70
2023/06/05 06:55:58;;;;;;;14.10;4.88;;;;;;;;;;4979415;28;20066;-69
2023/06/05 06:58:31;;;;;;;5.43;2.00;;;;;;;;;;4990065;28;20111;-69
2023/06/05 07:00:59;;;;;;;8.43;2.67;;;;;;;;;;5065720;28;20050;-68
2023/06/05 07:03:26;;;;;;;7.30;2.65;;;;;;;;;;5063546;28;20189;-68
2023/06/05 07:05:53;;;;;;;4.60;1.98;;;;;;;;;;5045591;28;20057;-68
2023/06/05 07:08:23;;;;;;;4.45;2.00;;;;;;;;;;4989954;28;22033;-68
2023/06/05 07:10:56;;;;;;;5.07;1.77;;;;;;;;;;4971226;28;20050;-67
2023/06/05 07:13:24;;;;;;;7.80;2.40;;;;;;;;;;4975991;28;20054;-69
2023/06/05 07:15:52;;;;;;;3.78;1.75;;;;;;;;;;4976675;28;20058;-68
2023/06/05 07:18:19;;;;;;;8.07;2.38;;;;;;;;;;4972139;28;20058;-69
2023/06/05 07:20:46;;;;;;;6.10;1.90;;;;;;;;;;4978189;28;20076;-68
2023/06/05 07:23:12;;;;;;;4.00;1.85;;;;;;;;;;4970272;28;20133;-69
2023/06/05 07:25:41;;;;;;;3.72;1.70;;;;;;;;;;4959009;28;20054;-69
2023/06/05 07:28:11;;;;;;;9.55;2.10;;;;;;;;;;4968565;28;20058;-68
2023/06/05 07:30:43;;;;;;;5.43;1.83;;;;;;;;;;4967914;28;21018;-66
2023/06/05 07:33:10;;;;;;;9.10;3.33;;;;;;;;;;4977908;28;20059;-66
2023/06/05 07:35:37;;;;;;;14.13;4.15;;;;;;;;;;4964093;28;20077;-67
2023/06/05 07:38:03;;;;;;;6.35;2.00;;;;;;;;;;4975956;28;20065;-68
2023/06/05 07:40:39;;;;;;;6.18;2.20;;;;;;;;;;4986402;28;20113;-68
2023/06/05 07:43:12;;;;;;;7.75;2.03;;;;;;;;;;5052959;28;20059;-68
2023/06/05 07:45:41;;;;;;;3.85;1.75;;;;;;;;;;4971822;28;20062;-69
2023/06/05 07:48:08;;;;;;;4.72;2.17;;;;;;;;;;4977161;28;20059;-68
2023/06/05 07:50:34;;;;;;;8.88;2.03;;;;;;;;;;4966815;28;20153;-68
2023/06/05 07:53:01;;;;;;;3.35;1.70;;;;;;;;;;4982987;28;20137;-68
2023/06/05 07:55:27;;;;;;;3.67;1.65;;;;;;;;;;4972017;28;20123;-69
2023/06/05 07:57:54;;;;;;;4.72;2.10;;;;;;;;;;4964998;28;20070;-69
2023/06/05 08:00:22;;;;;;;5.72;1.83;;;;;;;;;;4969194;28;20116;-70
2023/06/05 08:02:51;;;;;;;8.68;4.32;;;;;;;;;;4975580;28;20094;-68
2023/06/05 08:05:22;;;;;;;5.30;2.20;;;;;;;;;;4976470;28;20073;-69
2023/06/05 08:07:48;;;;;;;3.53;1.65;;;;;;;;;;4948865;28;20058;-68
2023/06/05 08:10:15;;;;;;;5.63;1.83;;;;;;;;;;5070023;28;20143;-69
2023/06/05 08:12:42;;;;;;;9.50;2.05;;;;;;;;;;4973347;28;20123;-69
2023/06/05 08:15:09;;;;;;;8.90;2.78;;;;;;;;;;4978182;28;20083;-69
2023/06/05 08:17:38;;;;;;;6.22;2.22;;;;;;;;;;4949005;28;20085;-69
2023/06/05 08:20:10;;;;;;;6.78;1.63;;;;;;;;;;4975281;28;20054;-68
2023/06/05 08:22:40;;;;;;;3.72;1.30;;;;;;;;;;4971295;28;20070;-67
2023/06/05 08:25:07;;;;;;;6.10;2.33;;;;;;;;;;4975200;28;20050;-67
2023/06/05 08:27:34;;;;;;;5.13;2.63;;;;;;;;;;4968485;28;20068;-66
2023/06/05 08:30:01;;;;;;;5.82;2.30;;;;;;;;;;4978518;28;20309;-66
2023/06/05 08:32:27;;;;;;;8.15;1.90;;;;;;;;;;4966639;28;20046;-67
2023/06/05 08:34:59;;;;;;;2.78;1.38;;;;;;;;;;4976209;28;20058;-66
2023/06/05 08:37:29;;;;;;;5.30;1.85;;;;;;;;;;4956908;28;20054;-67
2023/06/05 08:39:58;;;;;;;4.88;2.10;;;;;;;;;;4975774;28;20058;-67
2023/06/05 08:42:25;;;;;;;;;;;;;;;;;;4968804;28;20062;-67
2023/06/05 08:44:51;;;;;;;5.78;1.85;;;;;;;;;;4976271;28;19965;-66
2023/06/05 08:47:23;;;;;;;3.25;1.70;;;;;;;;;;4964888;28;20045;-66
2023/06/05 08:49:53;;;;;;;6.35;2.20;;;;;;;;;;4957605;28;20055;-66
2023/06/05 08:52:22;;;;;;;8.48;1.98;;;;;;;;;;4949982;28;20055;-70
2023/06/05 08:54:50;;;;;;;4.97;1.63;;;;;;;;;;4974671;28;20153;-68
2023/06/05 08:57:17;;;;;;;4.03;1.85;;;;;;;;;;4963544;28;20046;-69
2023/06/05 08:59:44;;;;;;;6.18;2.30;;;;;;;;;;4974700;28;20069;-69
2023/06/05 09:02:11;;;;;;;4.50;1.77;;;;;;;;;;4975352;28;20062;-66
2023/06/05 09:04:41;;;;;;;8.05;1.80;;;;;;;;;;4967354;28;20907;-66
2023/06/05 09:07:08;;;;;;;4.40;1.73;;;;;;;;;;5059546;28;20078;-65
2023/06/05 09:09:34;;;;;;;6.78;1.80;;;;;;;;;;5076066;28;20067;-67
2023/06/05 09:12:05;;;;;;;4.38;1.80;;;;;;;;;;5067409;28;20092;-66
2023/06/05 09:14:32;;;;;;;2.10;1.05;;;;;;;;;;4980977;28;20179;-69
2023/06/05 09:17:00;;;;;;;5.38;1.63;;;;;;;;;;4981701;28;20053;-66
2023/06/05 09:19:35;;;;;;;4.32;1.65;;;;;;;;;;4994472;28;20161;-67
2023/06/05 09:22:02;;;;;;;5.45;1.88;;;;;;;;;;4996587;28;20061;-66
2023/06/05 09:24:30;;;;;;;5.55;1.63;;;;;;;;;;4986422;28;20061;-67
2023/06/05 09:26:57;;;;;;;4.45;1.65;;;;;;;;;;5029447;28;20058;-67
2023/06/05 09:29:26;;;;;;;6.72;1.75;;;;;;;;;;5045012;28;20061;-67
2023/06/05 09:31:53;;;;;;;2.78;1.40;;;;;;;;;;4979061;28;20066;-66
2023/06/05 09:34:30;;;;;;;3.83;1.57;;;;;;;;;;4980999;28;20074;-66
2023/06/05 09:36:59;;;;;;;5.20;1.83;;;;;;;;;;5060168;28;20052;-66
2023/06/05 09:39:29;;;;;;;6.32;1.92;;;;;;;;;;4997563;28;20046;-66
2023/06/05 09:41:56;;;;;;;4.68;1.83;;;;;;;;;;5062641;28;20057;-66
2023/06/05 09:44:23;;;;;;;6.10;1.95;;;;;;;;;;5053529;28;20135;-67
2023/06/05 09:46:55;;;;;;;5.03;2.00;;;;;;;;;;4991737;28;20065;-66
2023/06/05 09:49:22;;;;;;;5.18;1.48;;;;;;;;;;4993840;28;20058;-67
2023/06/05 09:51:51;;;;;;;5.88;2.35;;;;;;;;;;5061910;28;20072;-67
2023/06/05 09:54:17;;;;;;;6.07;2.10;;;;;;;;;;5059498;28;20144;-67
2023/06/05 09:56:51;;;;;;;3.85;1.40;;;;;;;;;;4985896;28;20161;-67
2023/06/05 09:59:21;;;;;;;6.55;2.50;;;;;;;;;;4995124;28;20253;-66
2023/06/05 10:01:49;;;;;;;10.88;3.72;;;;;;;;;;4992943;28;20053;-66
2023/06/05 10:04:18;;;;;;;4.10;2.00;;;;;;;;;;5060280;28;20188;-67
2023/06/05 10:06:46;;;;;;;3.60;1.80;;;;;;;;;;5051906;28;20051;-66
2023/06/05 10:09:15;;;;;;;6.15;1.80;;;;;;;;;;5062713;28;20113;-66
2023/06/05 10:11:42;;;;;;;4.13;1.60;;;;;;;;;;5061628;28;20056;-66
2023/06/05 10:14:09;;;;;;;3.15;1.60;;;;;;;;;;5052610;28;20059;-66
2023/06/05 10:16:36;;;;;;;8.40;1.43;;;;;;;;;;5048893;28;20051;-66
2023/06/05 10:19:04;;;;;;;4.63;1.83;;;;;;;;;;5074468;28;20101;-67
2023/06/05 10:21:33;;;;;;;3.80;1.95;;;;;;;;;;5077466;28;20093;-67
2023/06/05 10:24:03;;;;;;;4.85;1.52;;;;;;;;;;5075937;28;20056;-66
2023/06/05 10:26:38;;;;;;;6.65;1.80;;;;;;;;;;5064158;28;20117;-67
2023/06/05 10:29:13;;;;;;;5.50;2.28;;;;;;;;;;5078082;28;20089;-66
2023/06/05 10:31:47;;;;;;;4.15;2.05;;;;;;;;;;5075438;28;20115;-66
2023/06/05 10:34:27;;;;;;;4.05;1.30;;;;;;;;;;5075236;28;20067;-66
2023/06/05 10:37:21;;;;;;;4.72;1.92;;;;;;;;;;5065940;28;20060;-66
2023/06/05 10:39:49;;;;;;;4.50;1.67;;;;;;;;;;5084298;28;20048;-66
2023/06/05 10:42:23;;;;;;;5.53;2.20;;;;;;;;;;5075735;28;20129;-67
2023/06/05 10:44:51;;;;;;;5.05;1.98;;;;;;;;;;5078761;28;20052;-66
2023/06/05 10:47:41;;;;;;;5.43;2.47;;;;;;;;;;5072142;28;20139;-66
2023/06/05 10:50:21;;;;;;;5.97;2.05;;;;;;;;;;5022847;28;20060;-66
2023/06/05 10:52:51;;;;;;;7.38;2.03;;;;;;;;;;5055884;28;20059;-66
2023/06/05 10:55:18;;;;;;;6.55;2.50;;;;;;;;;;5079607;28;20066;-65
2023/06/05 10:58:03;;;;;;;4.97;1.77;;;;;;;;;;5056924;28;20048;-66
2023/06/05 11:00:33;;;;;;;6.50;2.15;;;;;;;;;;5072709;27;20124;-67
2023/06/05 11:03:00;;;;;;;7.90;2.20;;;;;;;;;;5077158;28;20059;-65
2023/06/05 11:05:26;;;;;;;5.78;1.90;;;;;;;;;;5078697;28;20123;-66
2023/06/05 11:08:08;;;;;;;11.98;2.65;;;;;;;;;;5075730;28;20044;-65
2023/06/05 11:10:36;;;;;;;6.70;2.65;;;;;;;;;;5029011;28;20141;-66
2023/06/05 11:13:03;;;;;;;3.95;1.80;;;;;;;;;;5054913;28;20060;-66
2023/06/05 11:15:45;;;;;;;4.38;1.85;;;;;;;;;;5059347;28;20161;-66
2023/06/05 11:18:27;;;;;;;4.97;2.13;;;;;;;;;;5046108;28;20113;-68
2023/06/05 11:20:54;;;;;;;8.80;2.10;;;;;;;;;;5079427;28;20048;-68
2023/06/05 11:23:21;;;;;;;4.32;1.92;;;;;;;;;;5065836;28;20047;-68
2023/06/05 11:25:50;;;;;;;5.25;1.98;;;;;;;;;;5076732;28;20048;-67
2023/06/05 11:28:37;;;;;;;5.50;2.25;;;;;;;;;;5065535;28;20052;-68
2023/06/05 11:31:04;;;;;;;6.43;2.20;;;;;;;;;;5079309;28;20056;-68
2023/06/05 11:33:31;;;;;;;5.70;2.25;;;;;;;;;;5069242;28;20048;-68
2023/06/05 11:36:01;;;;;;;3.63;1.67;;;;;;;;;;5068266;28;20156;-65
2023/06/05 11:38:28;;;;;;;4.65;1.65;;;;;;;;;;5069582;28;20055;-66
2023/06/05 11:40:56;;;;;;;4.95;2.25;;;;;;;;;;5076553;28;20062;-65
2023/06/05 11:43:25;;;;;;;4.18;2.15;;;;;;;;;;5078039;28;20078;-66
2023/06/05 11:45:54;;;;;;;6.80;2.22;;;;;;;;;;5077061;28;20071;-68
2023/06/05 11:48:21;;;;;;;6.55;2.60;;;;;;;;;;5057408;28;20202;-69
2023/06/05 11:50:57;;;;;;;11.45;2.95;;;;;;;;;;5068638;28;20094;-68
2023/06/05 11:53:23;;;;;;;5.07;2.00;;;;;;;;;;5078182;28;20056;-68
2023/06/05 11:56:06;;;;;;;6.13;2.35;;;;;;;;;;5075429;28;20130;-68
2023/06/05 11:58:37;;;;;;;6.85;2.35;;;;;;;;;;5064810;28;20055;-68
2023/06/05 12:01:09;;;;;;;5.63;1.83;;;;;;;;;;5074101;28;20060;-67
2023/06/05 12:03:36;;;;;;;4.38;2.00;;;;;;;;;;5079226;28;20071;-68
2023/06/05 12:06:08;;;;;;;4.47;2.20;;;;;;;;;;5073790;28;20080;-65
2023/06/05 12:08:44;;;;;;;3.83;1.92;;;;;;;;;;5016488;28;20255;-65
2023/06/05 12:11:22;;;;;;;2.58;1.25;;;;;;;;;;5064625;28;20139;-68
2023/06/05 12:13:53;;;;;;;4.90;2.17;;;;;;;;;;5049342;28;20059;-68
2023/06/05 12:16:23;;;;;;;5.25;1.90;;;;;;;;;;5060370;28;20082;-68
2023/06/05 12:18:50;;;;;;;4.82;2.00;;;;;;;;;;5047890;28;20167;-67
2023/06/05 12:21:21;;;;;;;10.45;2.00;;;;;;;;;;5074807;28;20120;-66
2023/06/05 12:23:48;;;;;;;7.28;2.55;;;;;;;;;;5076708;28;20056;-65
2023/06/05 12:26:18;;;;;;;6.85;2.17;;;;;;;;;;5076401;28;20073;-65
2023/06/05 12:28:46;;;;;;;6.32;2.42;;;;;;;;;;5072287;28;20142;-68
2023/06/05 12:31:27;;;;;;;6.07;1.83;;;;;;;;;;5071127;28;20051;-66
2023/06/05 12:33:57;;;;;;;4.05;2.10;;;;;;;;;;5068713;28;20056;-66
2023/06/05 12:36:24;;;;;;;;;;;;;;;;;;5054555;28;20113;-66
2023/06/05 12:38:53;;;;;;;6.85;2.40;;;;;;;;;;5064805;28;19924;-65
2023/06/05 12:41:20;;;;;;;4.53;1.80;;;;;;;;;;5073790;28;20076;-66
2023/06/05 12:43:46;;;;;;;4.38;1.75;;;;;;;;;;5082590;28;20060;-68
2023/06/05 12:46:14;;;;;;;3.58;1.75;;;;;;;;;;5069179;28;20056;-69
2023/06/05 12:48:41;;;;;;;5.15;2.50;;;;;;;;;;4990753;28;20154;-66
2023/06/05 12:51:11;;;;;;;7.30;1.40;;;;;;;;;;5038384;28;20060;-68
2023/06/05 12:53:40;;;;;;;5.70;1.88;;;;;;;;;;5069905;28;20060;-68
2023/06/05 12:56:06;;;;;;;4.43;1.90;;;;;;;;;;5080070;28;20044;-66
2023/06/05 12:58:33;;;;;;;4.20;1.75;;;;;;;;;;5021012;28;20048;-65
2023/06/05 13:01:00;;;;;;;6.35;2.10;;;;;;;;;;5075334;28;20087;-65
2023/06/05 13:03:28;;;;;;;6.13;2.17;;;;;;;;;;5072146;28;20063;-68
2023/06/05 13:05:54;;;;;;;4.93;2.17;;;;;;;;;;5027441;28;20385;-65
2023/06/05 13:08:32;;;;;;;5.22;1.80;;;;;;;;;;5017931;28;20076;-66
2023/06/05 13:10:59;;;;;;;3.92;2.00;;;;;;;;;;5084370;28;20055;-66
2023/06/05 13:13:26;;;;;;;3.97;1.70;;;;;;;;;;5018888;28;20127;-66
2023/06/05 13:15:52;;;;;;;3.88;1.70;;;;;;;;;;4995807;28;20065;-66
2023/06/05 13:18:19;;;;;;;3.47;1.88;;;;;;;;;;4997855;28;20082;-66
2023/06/05 13:20:45;;;;;;;6.22;1.73;;;;;;;;;;4991882;28;20061;-68
2023/06/05 13:23:12;;;;;;;5.90;2.08;;;;;;;;;;5042747;28;20145;-66
2023/06/05 13:25:40;;;;;;;4.40;1.50;;;;;;;;;;4995270;28;20157;-66
2023/06/05 13:28:10;;;;;;;3.70;1.90;;;;;;;;;;5005418;28;20103;-66
2023/06/05 13:30:36;;;;;;;4.45;1.77;;;;;;;;;;4956697;28;20119;-66
2023/06/05 13:33:05;;;;;;;3.03;1.58;;;;;;;;;;4978658;28;20152;-67
2023/06/05 13:35:32;;;;;;;6.38;2.17;;;;;;;;;;5063133;28;20050;-66
2023/06/05 13:37:58;;;;;;;3.28;1.83;;;;;;;;;;4987997;28;20058;-68
2023/06/05 13:40:26;;;;;;;6.97;2.17;;;;;;;;;;5049058;28;20111;-66
2023/06/05 13:42:57;;;;;;;6.85;2.05;;;;;;;;;;4997098;28;20062;-66
2023/06/05 13:45:24;;;;;;;;;;;;;;;;;;4994798;28;20157;-65
2023/06/05 13:47:51;;;;;;;5.05;2.25;;;;;;;;;;4979064;28;20071;-66
2023/06/05 13:50:24;;;;;;;5.55;1.85;;;;;;;;;;5026871;28;20117;-68
2023/06/05 13:52:50;;;;;;;2.97;1.60;;;;;;;;;;5061822;28;20174;-66
2023/06/05 13:55:17;;;;;;;5.32;1.70;;;;;;;;;;5058654;28;20053;-66
2023/06/05 13:57:43;;;;;;;4.60;1.70;;;;;;;;;;4985885;28;20065;-67
2023/06/05 14:00:14;;;;;;;4.15;1.67;;;;;;;;;;5043458;28;20050;-66
2023/06/05 14:02:50;;;;;;;12.75;2.20;;;;;;;;;;4994335;28;21244;-66
2023/06/05 14:05:18;;;;;;;5.43;1.63;;;;;;;;;;5037388;28;20057;-66
2023/06/05 14:07:45;;;;;;;3.05;1.38;;;;;;;;;;4943646;28;20072;-66
2023/06/05 14:10:16;;;;;;;3.70;1.50;;;;;;;;;;4955523;28;20118;-66
2023/06/05 14:12:46;;;;;;;2.90;1.50;;;;;;;;;;5015424;28;20199;-66
2023/06/05 14:15:14;;;;;;;3.05;1.50;;;;;;;;;;4992230;28;20177;-66
2023/06/05 14:17:41;;;;;;;4.07;1.85;;;;;;;;;;4982295;28;20123;-66
2023/06/05 14:20:08;;;;;;;6.07;1.67;;;;;;;;;;4998736;28;20085;-67
2023/06/05 14:22:38;;;;;;;2.15;1.45;;;;;;;;;;4992122;28;20133;-66
2023/06/05 14:25:06;;;;;;;2.50;1.60;;;;;;;;;;4994982;28;20054;-68
2023/06/05 14:27:37;;;;;;;5.10;1.63;;;;;;;;;;4980323;28;20057;-66
2023/06/05 14:30:08;;;;;;;5.97;2.10;;;;;;;;;;4975416;28;20062;-66
2023/06/05 14:32:36;;;;;;;3.70;1.90;;;;;;;;;;5051172;28;20044;-67
2023/06/05 14:35:05;;;;;;;4.65;1.67;;;;;;;;;;4977712;28;20058;-66
2023/06/05 14:37:32;;;;;;;3.90;1.65;;;;;;;;;;5040427;28;20221;-67
2023/06/05 14:39:59;;;;;;;1.87;1.20;;;;;;;;;;5065805;28;20057;-67
2023/06/05 14:42:26;;;;;;;4.95;1.77;;;;;;;;;;4985753;28;20081;-66
2023/06/05 14:44:52;;;;;;;4.47;1.67;;;;;;;;;;5061337;28;20147;-66
2023/06/05 14:47:23;;;;;;;3.47;1.70;;;;;;;;;;5045229;28;20130;-66
2023/06/05 14:49:53;;;;;;;3.85;1.45;;;;;;;;;;4977881;28;20138;-66
2023/06/05 14:52:22;;;;;;;2.67;1.52;;;;;;;;;;5003158;28;20058;-67
2023/06/05 14:54:48;;;;;;;5.03;1.45;;;;;;;;;;4992231;28;20823;-68
2023/06/05 14:57:15;;;;;;;2.78;1.20;;;;;;;;;;5050640;28;20091;-67
2023/06/05 14:59:44;;;;;;;3.38;1.30;;;;;;;;;;5059942;28;20065;-66
2023/06/05 15:02:10;;;;;;;6.38;2.13;;;;;;;;;;5057266;28;20132;-66
2023/06/05 15:04:37;;;;;;;4.50;2.13;;;;;;;;;;5054440;28;20050;-67
2023/06/05 15:07:05;;;;;;;2.50;1.40;;;;;;;;;;4960413;28;20174;-67
2023/06/05 15:09:32;;;;;;;8.48;2.20;;;;;;;;;;5035801;28;20059;-67
2023/06/05 15:12:00;;;;;;;6.65;2.38;;;;;;;;;;5044186;28;20080;-68
2023/06/05 15:14:26;;;;;;;2.75;1.38;;;;;;;;;;4970910;28;20145;-67
2023/06/05 15:16:55;;;;;;;8.10;1.85;;;;;;;;;;4976968;28;20054;-67
2023/06/05 15:19:23;;;;;;;3.75;1.58;;;;;;;;;;4960734;28;20061;-66
2023/06/05 15:21:49;;;;;;;15.55;7.68;;;;;;;;;;4982166;28;20149;-65
2023/06/05 15:24:25;;;;;;;3.65;2.00;;;;;;;;;;4977912;28;20058;-67
2023/06/05 15:26:52;;;;;;;4.53;2.22;;;;;;;;;;4983060;28;20056;-66
2023/06/05 15:29:18;;;;;;;4.90;2.20;;;;;;;;;;4954745;28;20046;-66
2023/06/05 15:31:45;;;;;;;5.30;1.73;;;;;;;;;;4979566;28;20125;-68
2023/06/05 15:34:12;;;;;;;5.03;1.83;;;;;;;;;;4978595;28;20065;-67
2023/06/05 15:36:38;;;;;;;7.88;2.38;;;;;;;;;;4975474;28;20070;-68
2023/06/05 15:39:05;;;;;;;3.80;2.13;;;;;;;;;;4975217;28;20061;-69
2023/06/05 15:41:33;;;;;;;4.00;1.88;;;;;;;;;;4982380;28;20053;-68
2023/06/05 15:43:59;;;;;;;;;;;;;;;;;;4976941;28;20086;-67
2023/06/05 15:46:30;;;;;;;6.32;2.58;;;;;;;;;;4974032;28;19928;-70
2023/06/05 15:48:57;;;;;;;3.58;1.60;;;;;;;;;;4960264;28;20066;-69
2023/06/05 15:51:27;;;;;;;3.22;1.80;;;;;;;;;;4979093;28;20058;-68
2023/06/05 15:53:53;;;;;;;4.53;1.88;;;;;;;;;;4979503;28;20157;-67
2023/06/05 15:56:27;;;;;;;6.22;2.17;;;;;;;;;;4981731;28;20062;-69
2023/06/05 15:58:55;;;;;;;5.63;2.47;;;;;;;;;;4974216;28;20221;-68
2023/06/05 16:01:21;;;;;;;6.30;2.90;;;;;;;;;;4982447;28;20140;-67
2023/06/05 16:04:00;;;;;;;;;;;;;;;;;;;;;
2023/06/05 16:06:27;;;;;;;6.80;2.53;;;;;;;;;;4981033;28;20086;-68
2023/06/05 16:08:54;;;;;;;6.55;2.42;;;;;;;;;;4975758;28;20056;-67
2023/06/05 16:11:25;;;;;;;7.28;2.75;;;;;;;;;;4981689;27;20104;-66
2023/06/05 16:13:51;;;;;;;6.55;2.20;;;;;;;;;;4980902;28;20064;-66
2023/06/05 16:16:22;;;;;;;6.82;3.05;;;;;;;;;;4978033;28;20065;-67
2023/06/05 16:18:48;;;;;;;5.65;2.72;;;;;;;;;;4953938;28;20119;-66
2023/06/05 16:21:15;;;;;;;7.45;2.38;;;;;;;;;;4980620;28;20086;-67
2023/06/05 16:23:46;;;;;;;3.47;1.63;;;;;;;;;;4983515;28;20340;-66
2023/06/05 16:26:12;;;;;;;7.68;2.13;;;;;;;;;;4980254;28;20066;-67
2023/06/05 16:28:39;;;;;;;5.00;2.28;;;;;;;;;;4961114;27;20058;-67
2023/06/05 16:31:07;;;;;;;6.93;1.67;;;;;;;;;;4977341;28;20062;-66
2023/06/05 16:33:35;;;;;;;6.25;2.53;;;;;;;;;;4981710;28;20076;-66
2023/06/05 16:36:02;;;;;;;3.85;2.00;;;;;;;;;;4980972;28;20059;-66
2023/06/05 16:38:28;;;;;;;5.57;2.72;;;;;;;;;;4959276;28;20136;-67
2023/06/05 16:40:55;;;;;;;5.95;2.67;;;;;;;;;;4971646;28;20054;-67
2023/06/05 16:43:22;;;;;;;4.97;1.83;;;;;;;;;;4982752;28;20169;-67
2023/06/05 16:45:49;;;;;;;5.95;2.55;;;;;;;;;;4979650;28;20077;-66
2023/06/05 16:48:16;;;;;;;7.60;3.63;;;;;;;;;;4980708;28;20054;-67
2023/06/05 16:50:47;;;;;;;8.40;3.00;;;;;;;;;;4976576;28;20058;-69
2023/06/05 16:53:14;;;;;;;11.30;6.30;;;;;;;;;;4986458;28;20054;-67
2023/06/05 16:55:43;;;;;;;8.68;3.60;;;;;;;;;;4986181;28;20061;-68
2023/06/05 16:58:12;;;;;;;6.70;3.03;;;;;;;;;;4959044;28;20062;-67
2023/06/05 17:00:39;;;;;;;4.78;2.13;;;;;;;;;;4981139;27;20379;-68